Time;durP1;ratioP1;P1;durP2;ratioP2;P2;SDS_P1;SDS_P2;PMS_P1;PMS_P2;Temp;Humidity;BMP_temperature;BMP_pressure;BME280_temperature;BME280_humidity;BME280_pressure;Samples;Min_cycle;Max_cycle;Signal;HPM_P1;HPM_P2
2023/06/16 00:02:24;;;;;;;16.88;11.15;;;18.00;99.90;;;;;;5095032;27;20594;-84
2023/06/16 00:04:50;;;;;;;16.05;10.77;;;18.00;99.90;;;;;;5103935;28;20283;-79
2023/06/16 00:07:19;;;;;;;15.10;10.38;;;18.00;99.90;;;;;;5101028;28;20183;-80
2023/06/16 00:09:47;;;;;;;14.45;10.43;;;18.10;99.90;;;;;;5096959;28;20185;-79
2023/06/16 00:12:13;;;;;;;13.07;9.82;;;18.10;99.90;;;;;;5102514;28;20248;-80
2023/06/16 00:14:39;;;;;;;20.50;11.38;;;18.10;99.90;;;;;;5110232;28;20260;-80
2023/06/16 00:17:06;;;;;;;12.88;10.13;;;18.10;99.90;;;;;;5077846;28;20209;-80
2023/06/16 00:19:32;;;;;;;13.85;11.07;;;18.10;99.90;;;;;;5109303;27;20221;-79
2023/06/16 00:22:03;;;;;;;18.40;11.40;;;18.00;99.90;;;;;;5092842;28;20190;-79
2023/06/16 00:24:29;;;;;;;13.95;10.00;;;18.00;99.90;;;;;;5100626;28;20181;-80
2023/06/16 00:26:55;;;;;;;19.13;10.50;;;18.00;99.90;;;;;;5098274;28;20177;-78
2023/06/16 00:29:21;;;;;;;17.65;10.38;;;18.00;99.90;;;;;;5093833;28;20185;-78
2023/06/16 00:31:47;;;;;;;12.30;9.55;;;18.00;99.90;;;;;;5087776;28;20536;-78
2023/06/16 00:34:13;;;;;;;18.08;10.10;;;18.00;99.90;;;;;;5079701;28;20261;-79
2023/06/16 00:36:38;;;;;;;13.05;10.32;;;17.90;99.90;;;;;;5079363;28;20192;-78
2023/06/16 00:39:04;;;;;;;19.15;10.25;;;17.90;99.90;;;;;;5108959;28;20234;-83
2023/06/16 00:41:31;;;;;;;14.27;9.48;;;17.90;99.90;;;;;;5097864;28;20184;-78
2023/06/16 00:43:57;;;;;;;17.15;10.82;;;17.90;99.90;;;;;;5106007;28;20253;-80
2023/06/16 00:46:28;;;;;;;13.02;10.55;;;17.90;99.90;;;;;;5085598;28;20181;-81
2023/06/16 00:48:58;;;;;;;14.60;9.98;;;17.90;99.90;;;;;;5102087;28;20237;-79
2023/06/16 00:51:26;;;;;;;19.65;10.70;;;17.90;99.90;;;;;;5081447;28;20181;-80
2023/06/16 00:53:54;;;;;;;14.15;10.57;;;17.80;99.90;;;;;;5079200;28;20181;-80
2023/06/16 00:56:21;;;;;;;13.90;10.10;;;17.80;99.90;;;;;;5096302;28;20182;-79
2023/06/16 00:58:50;;;;;;;15.18;10.27;;;17.80;99.90;;;;;;5079336;28;20235;-79
2023/06/16 01:01:16;;;;;;;13.15;10.02;;;17.80;99.90;;;;;;5076052;28;20210;-80
2023/06/16 01:03:41;;;;;;;16.02;9.73;;;17.80;99.90;;;;;;5104795;28;20243;-79
2023/06/16 01:06:21;;;;;;;16.45;10.23;;;17.80;99.90;;;;;;5091814;28;20261;-82
2023/06/16 01:08:53;;;;;;;13.32;10.27;;;17.80;99.90;;;;;;5100554;28;20174;-79
2023/06/16 01:11:45;;;;;;;14.93;9.38;;;17.80;99.90;;;;;;5100197;28;20242;-80
2023/06/16 01:14:27;;;;;;;13.00;9.63;;;17.80;99.90;;;;;;5099223;28;20169;-80
2023/06/16 01:16:57;;;;;;;14.50;9.80;;;17.80;99.90;;;;;;5097438;28;20185;-79
2023/06/16 01:19:37;;;;;;;12.48;10.02;;;17.80;99.90;;;;;;5100635;28;20182;-80
2023/06/16 01:22:11;;;;;;;13.40;10.07;;;17.80;99.90;;;;;;5093532;28;20185;-84
2023/06/16 01:24:42;;;;;;;12.50;9.63;;;17.80;99.90;;;;;;5093277;28;20211;-79
2023/06/16 01:27:10;;;;;;;13.27;9.98;;;17.70;99.90;;;;;;5098429;28;20174;-79
2023/06/16 01:29:37;;;;;;;12.93;10.10;;;17.70;99.90;;;;;;5102977;28;20198;-80
2023/06/16 01:32:07;;;;;;;14.35;10.35;;;17.70;99.90;;;;;;5104867;28;20236;-82
2023/06/16 01:34:35;;;;;;;11.43;10.00;;;17.60;99.90;;;;;;5105199;28;20669;-80
2023/06/16 01:37:03;;;;;;;13.43;9.95;;;17.60;99.90;;;;;;5103294;28;20173;-79
2023/06/16 01:39:30;;;;;;;13.70;10.32;;;17.60;99.90;;;;;;5099408;28;20182;-79
2023/06/16 01:41:58;;;;;;;14.32;11.25;;;17.60;99.90;;;;;;5090966;28;20562;-79
2023/06/16 01:44:26;;;;;;;14.57;10.25;;;17.60;99.90;;;;;;5101846;28;20209;-79
2023/06/16 01:46:53;;;;;;;16.52;11.10;;;17.60;99.90;;;;;;5094056;28;20181;-79
2023/06/16 01:49:19;;;;;;;14.07;11.68;;;17.60;99.90;;;;;;5092334;28;20174;-79
2023/06/16 01:51:45;;;;;;;14.85;11.23;;;17.50;99.90;;;;;;5102247;28;20574;-81
2023/06/16 01:54:11;;;;;;;16.17;11.73;;;17.50;99.90;;;;;;5102435;28;20190;-80
2023/06/16 01:56:37;;;;;;;14.25;11.43;;;17.50;99.90;;;;;;5097568;28;20315;-80
2023/06/16 01:59:03;;;;;;;16.10;11.48;;;17.50;99.90;;;;;;5106744;28;20223;-79
2023/06/16 02:01:31;;;;;;;14.55;11.05;;;17.50;99.90;;;;;;5122153;27;20181;-79
2023/06/16 02:04:09;;;;;;;19.25;12.32;;;17.50;99.90;;;;;;5106278;28;20256;-80
2023/06/16 02:07:03;;;;;;;16.85;11.88;;;17.50;99.90;;;;;;5094279;28;20482;-79
2023/06/16 02:09:31;;;;;;;18.27;12.13;;;17.50;99.90;;;;;;5092147;28;20275;-79
2023/06/16 02:11:57;;;;;;;17.50;13.48;;;17.50;99.90;;;;;;5096789;28;20677;-80
2023/06/16 02:14:27;;;;;;;17.05;13.23;;;17.40;99.90;;;;;;5097446;28;20192;-82
2023/06/16 02:16:53;;;;;;;17.40;13.27;;;17.40;99.90;;;;;;5096556;28;20257;-80
2023/06/16 02:19:19;;;;;;;19.40;14.25;;;17.40;99.90;;;;;;5104209;28;20594;-81
2023/06/16 02:21:45;;;;;;;25.38;14.48;;;17.40;99.90;;;;;;5096144;28;20189;-81
2023/06/16 02:24:11;;;;;;;20.50;14.63;;;17.30;99.90;;;;;;5080338;28;20273;-81
2023/06/16 02:26:37;;;;;;;19.08;14.10;;;17.30;99.90;;;;;;5089237;28;20272;-81
2023/06/16 02:29:04;;;;;;;22.10;15.10;;;17.30;99.90;;;;;;5101691;28;20181;-83
2023/06/16 02:31:30;;;;;;;18.98;14.82;;;17.30;99.90;;;;;;5107134;27;20634;-80
2023/06/16 02:33:56;;;;;;;20.15;15.52;;;17.20;99.90;;;;;;5102504;27;20295;-81
2023/06/16 02:36:23;;;;;;;17.25;14.63;;;17.20;99.90;;;;;;5101095;27;20182;-81
2023/06/16 02:38:50;;;;;;;22.33;15.48;;;17.20;99.90;;;;;;5082462;28;20205;-81
2023/06/16 02:41:17;;;;;;;20.95;16.05;;;17.20;99.90;;;;;;5104487;28;20617;-81
2023/06/16 02:43:44;;;;;;;20.58;15.73;;;17.20;99.90;;;;;;5090742;28;20603;-81
2023/06/16 02:46:10;;;;;;;22.67;16.17;;;17.20;99.90;;;;;;5098713;28;20543;-82
2023/06/16 02:48:36;;;;;;;22.25;16.45;;;17.20;99.90;;;;;;5096695;28;20181;-81
2023/06/16 02:51:03;;;;;;;22.25;17.75;;;17.20;99.90;;;;;;5110861;28;20273;-82
2023/06/16 02:53:29;;;;;;;22.88;16.83;;;17.10;99.90;;;;;;5107286;27;20223;-81
2023/06/16 02:55:56;;;;;;;21.50;17.40;;;17.10;99.90;;;;;;5093867;28;20196;-81
2023/06/16 02:58:23;;;;;;;22.75;17.77;;;17.10;99.90;;;;;;5086333;28;20281;-80
2023/06/16 03:00:49;;;;;;;26.10;18.33;;;17.10;99.90;;;;;;5091349;28;20554;-81
2023/06/16 03:03:30;;;;;;;25.65;18.73;;;17.10;99.90;;;;;;5093913;28;20216;-81
2023/06/16 03:06:07;;;;;;;25.88;19.48;;;17.10;99.90;;;;;;5105002;28;20187;-82
2023/06/16 03:08:34;;;;;;;24.38;19.08;;;17.10;99.90;;;;;;5095788;27;20269;-81
2023/06/16 03:11:00;;;;;;;24.38;18.52;;;17.00;99.90;;;;;;5079862;28;20174;-81
2023/06/16 03:13:32;;;;;;;26.10;20.00;;;17.00;99.90;;;;;;5094162;28;20266;-81
2023/06/16 03:16:00;;;;;;;26.85;19.90;;;17.00;99.90;;;;;;5101164;28;20177;-81
2023/06/16 03:18:27;;;;;;;24.35;18.77;;;17.00;99.90;;;;;;5099545;27;20550;-80
2023/06/16 03:20:54;;;;;;;23.10;19.15;;;17.00;99.90;;;;;;5089840;28;20180;-80
2023/06/16 03:23:25;;;;;;;27.27;20.92;;;17.00;99.90;;;;;;5078301;28;20204;-80
2023/06/16 03:25:52;;;;;;;29.95;21.13;;;17.00;99.90;;;;;;5105238;28;20208;-81
2023/06/16 03:28:23;;;;;;;27.23;21.45;;;17.00;99.90;;;;;;5085889;28;20605;-81
2023/06/16 03:30:52;;;;;;;24.85;20.90;;;17.00;99.90;;;;;;5097547;27;20268;-81
2023/06/16 03:33:33;;;;;;;25.65;21.35;;;17.00;99.90;;;;;;5096962;28;20586;-81
2023/06/16 03:36:00;;;;;;;27.92;21.13;;;17.00;99.90;;;;;;5104637;28;20321;-81
2023/06/16 03:38:34;;;;;;;28.30;21.17;;;17.00;99.90;;;;;;5108997;27;20180;-81
2023/06/16 03:41:01;;;;;;;23.88;20.73;;;17.00;99.90;;;;;;5107820;28;20193;-81
2023/06/16 03:43:27;;;;;;;29.27;21.65;;;16.90;99.90;;;;;;5101547;27;20185;-81
2023/06/16 03:45:54;;;;;;;25.35;21.73;;;16.90;99.90;;;;;;5103218;27;20183;-81
2023/06/16 03:48:21;;;;;;;27.77;22.23;;;16.90;99.90;;;;;;5093600;27;20222;-81
2023/06/16 03:50:52;;;;;;;28.33;21.95;;;17.00;99.90;;;;;;5091545;28;20182;-81
2023/06/16 03:53:20;;;;;;;26.50;21.75;;;17.00;99.90;;;;;;5105598;27;20215;-81
2023/06/16 03:55:47;;;;;;;26.75;21.52;;;17.00;99.90;;;;;;5097785;28;20178;-82
2023/06/16 03:58:15;;;;;;;30.77;20.95;;;17.00;99.90;;;;;;5094659;28;20621;-81
2023/06/16 04:00:43;;;;;;;27.90;22.05;;;17.00;99.90;;;;;;5095989;27;20173;-81
2023/06/16 04:03:11;;;;;;;27.75;21.77;;;17.00;99.90;;;;;;5097996;27;20177;-81
2023/06/16 04:05:37;;;;;;;28.63;21.67;;;17.00;99.90;;;;;;5101294;28;20708;-80
2023/06/16 04:08:05;;;;;;;26.50;20.70;;;17.00;99.90;;;;;;5103206;27;20213;-83
2023/06/16 04:10:32;;;;;;;25.98;21.45;;;17.00;99.90;;;;;;5065423;28;20294;-82
2023/06/16 04:12:58;;;;;;;26.55;20.23;;;17.00;99.90;;;;;;5083102;28;20738;-81
2023/06/16 04:15:26;;;;;;;27.55;21.70;;;17.00;99.90;;;;;;5093324;28;20235;-81
2023/06/16 04:17:52;;;;;;;27.83;21.75;;;17.10;99.90;;;;;;5106748;27;20199;-82
2023/06/16 04:20:20;;;;;;;34.35;22.23;;;17.10;99.90;;;;;;5089705;27;20645;-81
2023/06/16 04:22:47;;;;;;;27.83;22.40;;;17.10;99.90;;;;;;5101538;28;20184;-82
2023/06/16 04:25:13;;;;;;;30.13;22.55;;;17.10;99.90;;;;;;5098681;28;20268;-83
2023/06/16 04:27:41;;;;;;;31.58;23.58;;;17.10;99.90;;;;;;5090477;28;20174;-82
2023/06/16 04:30:08;;;;;;;31.20;24.88;;;17.10;99.90;;;;;;5090152;28;20613;-82
2023/06/16 04:32:36;;;;;;;32.28;25.20;;;17.10;99.90;;;;;;5099817;27;20214;-82
2023/06/16 04:35:04;;;;;;;32.28;25.65;;;17.10;99.90;;;;;;5089334;28;20226;-83
2023/06/16 04:37:32;;;;;;;35.80;27.38;;;17.10;99.90;;;;;;5100915;27;20602;-81
2023/06/16 04:39:59;;;;;;;38.20;28.65;;;17.20;99.90;;;;;;5097817;28;20285;-80
2023/06/16 04:42:26;;;;;;;38.30;28.13;;;17.20;99.90;;;;;;5083110;27;20617;-81
2023/06/16 04:44:52;;;;;;;41.00;29.65;;;17.20;99.90;;;;;;5098200;28;20174;-81
2023/06/16 04:47:20;;;;;;;39.70;30.70;;;17.20;99.90;;;;;;5096517;28;20198;-80
2023/06/16 04:49:46;;;;;;;40.60;30.92;;;17.20;99.90;;;;;;5104465;27;20196;-81
2023/06/16 04:52:12;;;;;;;39.50;30.13;;;17.20;99.90;;;;;;5096507;27;20206;-80
2023/06/16 04:54:38;;;;;;;37.63;30.48;;;17.20;99.90;;;;;;5079770;28;20169;-84
2023/06/16 04:57:07;;;;;;;37.92;29.52;;;17.30;99.90;;;;;;5079576;28;20618;-78
2023/06/16 04:59:35;;;;;;;37.72;28.92;;;17.30;99.90;;;;;;5096568;28;20181;-79
2023/06/16 05:02:01;;;;;;;39.35;28.33;;;17.30;99.90;;;;;;5095575;28;20339;-80
2023/06/16 05:04:27;;;;;;;38.60;27.25;;;17.30;99.90;;;;;;5103531;28;20186;-80
2023/06/16 05:06:53;;;;;;;33.88;27.27;;;17.30;99.90;;;;;;5096282;27;20238;-81
2023/06/16 05:09:23;;;;;;;37.67;28.38;;;17.40;99.90;;;;;;5087822;28;20184;-81
2023/06/16 05:11:49;;;;;;;38.40;28.00;;;17.40;99.90;;;;;;5097424;27;20288;-82
2023/06/16 05:14:15;;;;;;;36.60;27.35;;;17.40;99.90;;;;;;5094763;28;20181;-81
2023/06/16 05:16:41;;;;;;;32.67;25.75;;;17.40;99.90;;;;;;5100302;28;20169;-81
2023/06/16 05:19:08;;;;;;;34.60;25.65;;;17.50;99.90;;;;;;5100530;28;20246;-83
2023/06/16 05:21:38;;;;;;;33.88;24.40;;;17.50;99.90;;;;;;5083661;28;20186;-81
2023/06/16 05:24:05;;;;;;;32.88;22.35;;;17.60;99.90;;;;;;5097183;28;20574;-83
2023/06/16 05:26:31;;;;;;;30.65;24.05;;;17.60;99.90;;;;;;5100990;28;20194;-80
2023/06/16 05:28:56;;;;;;;30.75;24.48;;;17.70;99.90;;;;;;5100802;28;20583;-81
2023/06/16 05:31:24;;;;;;;31.42;23.52;;;17.60;99.90;;;;;;5093019;27;20203;-84
2023/06/16 05:33:50;;;;;;;33.67;23.80;;;17.70;99.90;;;;;;5099270;28;20194;-83
2023/06/16 05:36:16;;;;;;;32.25;22.48;;;17.80;99.90;;;;;;5089870;28;20217;-80
2023/06/16 05:38:44;;;;;;;33.83;23.13;;;17.80;99.90;;;;;;5080407;28;20276;-80
2023/06/16 05:41:10;;;;;;;30.83;23.13;;;17.90;99.90;;;;;;5087537;28;20645;-80
2023/06/16 05:43:40;;;;;;;32.47;23.45;;;17.90;99.90;;;;;;5095949;28;20198;-80
2023/06/16 05:46:06;;;;;;;29.10;22.38;;;18.00;99.90;;;;;;5090212;28;20183;-79
2023/06/16 05:48:32;;;;;;;33.15;22.92;;;18.00;99.90;;;;;;5090888;28;20209;-78
2023/06/16 05:50:59;;;;;;;35.80;23.38;;;18.00;99.90;;;;;;5109519;28;20177;-80
2023/06/16 05:53:25;;;;;;;35.08;24.17;;;18.10;99.90;;;;;;5099312;28;20227;-79
2023/06/16 05:55:51;;;;;;;37.53;27.00;;;18.10;99.90;;;;;;5108751;28;20601;-80
2023/06/16 05:58:16;;;;;;;56.83;37.72;;;18.20;99.90;;;;;;5111485;28;20222;-80
2023/06/16 06:00:42;;;;;;;53.22;35.88;;;18.20;99.90;;;;;;5104406;28;20185;-79
2023/06/16 06:03:14;;;;;;;37.90;23.50;;;18.30;99.90;;;;;;5103657;28;20666;-83
2023/06/16 06:05:41;;;;;;;35.65;23.02;;;18.40;99.90;;;;;;5092607;28;20187;-82
2023/06/16 06:08:10;;;;;;;29.52;20.50;;;18.40;99.90;;;;;;5081629;28;20222;-80
2023/06/16 06:10:36;;;;;;;22.48;18.02;;;18.40;99.90;;;;;;5088233;28;20243;-79
2023/06/16 06:13:03;;;;;;;27.85;17.88;;;18.50;99.90;;;;;;5078548;28;20193;-80
2023/06/16 06:15:30;;;;;;;21.45;17.23;;;18.50;99.90;;;;;;5104004;28;20174;-79
2023/06/16 06:18:04;;;;;;;21.48;16.13;;;18.60;99.90;;;;;;5114271;28;20198;-79
2023/06/16 06:20:32;;;;;;;20.67;15.23;;;18.60;99.90;;;;;;5091557;28;20178;-81
2023/06/16 06:22:58;;;;;;;21.45;15.77;;;18.70;99.90;;;;;;5061337;28;20624;-80
2023/06/16 06:25:24;;;;;;;17.50;13.50;;;18.70;99.90;;;;;;5110388;28;20233;-79
2023/06/16 06:27:50;;;;;;;15.13;12.10;;;18.80;99.90;;;;;;5081747;28;20264;-79
2023/06/16 06:30:17;;;;;;;20.25;13.85;;;18.90;99.90;;;;;;5095770;28;20265;-79
2023/06/16 06:32:43;;;;;;;19.85;13.13;;;19.00;99.90;;;;;;5060040;28;20221;-78
2023/06/16 06:35:09;;;;;;;17.33;13.13;;;19.10;99.90;;;;;;5080357;28;20700;-78
2023/06/16 06:37:35;;;;;;;15.35;12.35;;;19.10;99.90;;;;;;5095439;28;20182;-79
2023/06/16 06:40:01;;;;;;;18.58;12.55;;;19.20;99.90;;;;;;5093997;28;20626;-79
2023/06/16 06:42:29;;;;;;;19.55;12.55;;;19.30;99.90;;;;;;5077631;28;20216;-79
2023/06/16 06:44:56;;;;;;;16.48;12.77;;;19.30;99.90;;;;;;5081055;28;20193;-80
2023/06/16 06:47:23;;;;;;;18.02;11.93;;;19.40;99.90;;;;;;5093066;28;20186;-79
2023/06/16 06:49:54;;;;;;;17.38;11.93;;;19.50;99.90;;;;;;5093837;28;20186;-80
2023/06/16 06:52:20;;;;;;;18.42;11.65;;;19.60;99.90;;;;;;5092666;28;20216;-83
2023/06/16 06:54:46;;;;;;;18.17;10.90;;;19.60;99.90;;;;;;5078206;28;20618;-80
2023/06/16 06:57:15;;;;;;;14.77;11.10;;;19.70;99.90;;;;;;5103259;28;20170;-80
2023/06/16 06:59:42;;;;;;;15.02;9.30;;;19.90;99.90;;;;;;5113806;28;20177;-80
2023/06/16 07:02:08;;;;;;;10.18;8.90;;;20.00;99.90;;;;;;5093334;28;20181;-80
2023/06/16 07:04:34;;;;;;;10.93;8.93;;;20.10;99.90;;;;;;5094251;28;20260;-81
2023/06/16 07:07:02;;;;;;;10.75;8.52;;;20.20;99.90;;;;;;5112119;28;20199;-80
2023/06/16 07:09:27;;;;;;;10.75;9.18;;;20.30;99.90;;;;;;5096444;28;20254;-83
2023/06/16 07:11:53;;;;;;;14.40;8.85;;;20.30;99.90;;;;;;5092219;28;20222;-80
2023/06/16 07:14:19;;;;;;;11.45;8.55;;;20.40;99.90;;;;;;5093638;28;20166;-82
2023/06/16 07:16:45;;;;;;;13.18;7.95;;;20.40;99.90;;;;;;5103979;28;20231;-82
2023/06/16 07:19:10;;;;;;;10.32;7.45;;;20.50;99.90;;;;;;5096975;28;20273;-81
2023/06/16 07:21:38;;;;;;;11.05;8.73;;;20.60;99.90;;;;;;5111564;28;20295;-80
2023/06/16 07:24:05;;;;;;;12.48;9.02;;;20.70;99.90;;;;;;5104703;28;20650;-81
2023/06/16 07:26:31;;;;;;;16.05;8.32;;;20.80;99.90;;;;;;5095730;28;20170;-81
2023/06/16 07:28:57;;;;;;;11.10;7.35;;;20.90;99.90;;;;;;5112617;28;20196;-81
2023/06/16 07:31:24;;;;;;;11.45;8.60;;;21.00;99.90;;;;;;5112633;28;20204;-82
2023/06/16 07:33:50;;;;;;;9.52;7.63;;;21.10;99.90;;;;;;5113874;28;20174;-81
2023/06/16 07:36:16;;;;;;;11.13;8.27;;;21.30;99.90;;;;;;5108672;28;20691;-81
2023/06/16 07:38:42;;;;;;;10.70;8.73;;;21.30;99.90;;;;;;5091735;28;20568;-83
2023/06/16 07:41:07;;;;;;;11.15;8.30;;;21.40;99.90;;;;;;5091474;28;20541;-82
2023/06/16 07:43:34;;;;;;;11.38;7.32;;;21.50;99.90;;;;;;5111745;28;20192;-83
2023/06/16 07:46:00;;;;;;;12.43;7.10;;;21.50;99.90;;;;;;5102032;28;20313;-82
2023/06/16 07:48:26;;;;;;;8.52;6.93;;;21.60;99.90;;;;;;5101818;28;20732;-83
2023/06/16 07:50:53;;;;;;;9.77;6.68;;;21.70;99.90;;;;;;5098639;28;20197;-82
2023/06/16 07:53:20;;;;;;;12.82;6.85;;;21.80;99.90;;;;;;5101805;28;20215;-82
2023/06/16 07:55:46;;;;;;;10.70;7.13;;;21.90;99.90;;;;;;5091660;28;20194;-83
2023/06/16 07:58:12;;;;;;;9.15;6.40;;;22.00;99.90;;;;;;5109181;28;20188;-83
2023/06/16 08:00:37;;;;;;;7.78;6.05;;;22.10;99.90;;;;;;5096084;28;20182;-83
2023/06/16 08:03:03;;;;;;;9.70;6.20;;;22.10;99.90;;;;;;5098127;28;20541;-82
2023/06/16 08:05:29;;;;;;;10.05;5.70;;;22.20;99.90;;;;;;5111744;28;20197;-81
2023/06/16 08:07:55;;;;;;;11.82;5.55;;;22.30;99.90;;;;;;5111528;28;20189;-82
2023/06/16 08:10:21;;;;;;;7.72;4.93;;;22.40;99.90;;;;;;5111333;28;20192;-81
2023/06/16 08:12:51;;;;;;;9.02;4.95;;;22.50;99.90;;;;;;5099218;28;20205;-81
2023/06/16 08:15:18;;;;;;;7.28;4.57;;;22.60;99.90;;;;;;5098948;27;20177;-82
2023/06/16 08:17:45;;;;;;;6.43;4.10;;;22.70;99.90;;;;;;5097506;28;20185;-82
2023/06/16 08:20:11;;;;;;;8.73;4.10;;;22.70;99.00;;;;;;5076195;28;20335;-81
2023/06/16 08:22:37;;;;;;;8.05;4.10;;;22.80;97.40;;;;;;5092465;27;20185;-82
2023/06/16 08:25:05;;;;;;;6.93;3.95;;;22.80;96.20;;;;;;5107924;28;20177;-81
2023/06/16 08:27:30;;;;;;;4.20;3.03;;;22.90;95.70;;;;;;5093212;28;20235;-81
2023/06/16 08:29:56;;;;;;;7.20;3.40;;;23.00;93.70;;;;;;5093234;28;20174;-82
2023/06/16 08:32:22;;;;;;;6.07;3.20;;;23.10;91.40;;;;;;5093496;28;20578;-81
2023/06/16 08:34:48;;;;;;;4.28;2.97;;;23.20;90.30;;;;;;5096225;28;20431;-80
2023/06/16 08:37:15;;;;;;;3.92;3.05;;;23.20;87.00;;;;;;5091561;28;20603;-81
2023/06/16 08:39:43;;;;;;;7.03;3.40;;;23.30;81.60;;;;;;5100882;28;20185;-82
2023/06/16 08:42:10;;;;;;;6.72;3.25;;;23.40;79.30;;;;;;5088015;28;20251;-81
2023/06/16 08:44:38;;;;;;;5.53;3.40;;;23.50;78.80;;;;;;5099283;28;20193;-82
2023/06/16 08:47:05;;;;;;;10.10;3.60;;;23.60;77.70;;;;;;5094119;28;20189;-82
2023/06/16 08:49:32;;;;;;;8.68;3.50;;;23.60;77.10;;;;;;5103932;28;20193;-82
2023/06/16 08:52:01;;;;;;;6.53;3.63;;;23.70;76.90;;;;;;5108369;28;20266;-81
2023/06/16 08:54:31;;;;;;;5.60;3.30;;;23.70;76.50;;;;;;5102208;28;20181;-82
2023/06/16 08:57:01;;;;;;;7.97;3.22;;;23.80;76.20;;;;;;5106351;27;20291;-81
2023/06/16 08:59:30;;;;;;;7.13;3.10;;;23.90;76.30;;;;;;5125488;27;20189;-81
2023/06/16 09:01:59;;;;;;;4.25;2.78;;;24.00;75.20;;;;;;5105127;28;20192;-82
2023/06/16 09:04:25;;;;;;;5.63;2.70;;;24.10;74.20;;;;;;5108482;28;20181;-81
2023/06/16 09:06:56;;;;;;;9.48;3.25;;;24.20;74.00;;;;;;5097227;28;20185;-81
2023/06/16 09:09:22;;;;;;;4.80;3.40;;;24.20;72.50;;;;;;5104200;28;20173;-80
2023/06/16 09:12:10;;;;;;;6.65;3.10;;;24.30;72.20;;;;;;5092368;28;20213;-82
2023/06/16 09:14:41;;;;;;;7.10;3.13;;;24.30;71.40;;;;;;5104033;28;20555;-80
2023/06/16 09:17:08;;;;;;;7.00;3.00;;;24.30;71.50;;;;;;5105505;28;20188;-80
2023/06/16 09:19:47;;;;;;;5.07;3.10;;;24.40;71.20;;;;;;5092001;28;20193;-79
2023/06/16 09:22:23;;;;;;;6.15;3.40;;;24.50;70.20;;;;;;5091539;28;20165;-81
2023/06/16 09:25:05;;;;;;;4.95;2.95;;;24.50;70.20;;;;;;5098539;28;20637;-78
2023/06/16 09:27:50;;;;;;;6.10;2.90;;;24.60;69.20;;;;;;5092207;28;20182;-80
2023/06/16 09:30:20;;;;;;;7.07;3.08;;;24.70;68.70;;;;;;5091008;28;20166;-77
2023/06/16 09:32:53;;;;;;;6.18;2.97;;;24.80;68.40;;;;;;5090848;28;20270;-78
2023/06/16 09:35:25;;;;;;;10.55;3.40;;;24.90;68.50;;;;;;5110042;28;20221;-77
2023/06/16 09:37:55;;;;;;;6.57;3.20;;;24.90;67.60;;;;;;5107626;28;20185;-77
2023/06/16 09:40:27;;;;;;;8.52;3.13;;;25.00;67.00;;;;;;5089359;28;20630;-80
2023/06/16 09:42:54;;;;;;;4.32;3.10;;;25.10;66.50;;;;;;5104758;28;20180;-78
2023/06/16 09:45:20;;;;;;;5.05;3.55;;;25.20;66.20;;;;;;5109052;28;20180;-78
2023/06/16 09:47:50;;;;;;;5.38;3.22;;;25.20;65.90;;;;;;5090830;28;20178;-77
2023/06/16 09:50:18;;;;;;;5.45;2.83;;;25.20;65.10;;;;;;5099548;28;20196;-78
2023/06/16 09:52:45;;;;;;;3.90;3.20;;;25.20;65.00;;;;;;5110974;28;20212;-77
2023/06/16 09:55:12;;;;;;;4.80;3.20;;;25.20;65.20;;;;;;5100495;28;20189;-78
2023/06/16 09:57:43;;;;;;;5.57;2.78;;;25.20;65.00;;;;;;5090700;28;20197;-78
2023/06/16 10:00:15;;;;;;;5.20;3.00;;;25.30;63.80;;;;;;5091642;28;20182;-78
2023/06/16 10:02:45;;;;;;;5.63;2.97;;;25.30;63.60;;;;;;5091277;28;20520;-77
2023/06/16 10:05:16;;;;;;;5.57;3.03;;;25.30;63.50;;;;;;5092246;28;20180;-79
2023/06/16 10:08:02;;;;;;;5.93;3.13;;;25.40;63.80;;;;;;5089329;28;20177;-78
2023/06/16 10:10:32;;;;;;;5.85;3.50;;;25.40;64.20;;;;;;5089276;28;20197;-78
2023/06/16 10:13:03;;;;;;;11.75;3.72;;;25.50;64.20;;;;;;5093451;28;20201;-78
2023/06/16 10:15:37;;;;;;;5.57;3.30;;;25.60;64.70;;;;;;5108137;28;20174;-77
2023/06/16 10:18:06;;;;;;;8.30;3.70;;;25.70;64.90;;;;;;5096892;28;20166;-78
2023/06/16 10:20:32;;;;;;;8.50;3.20;;;25.80;63.20;;;;;;5089331;28;20205;-78
2023/06/16 10:23:03;;;;;;;9.63;3.00;;;25.90;61.70;;;;;;5106573;28;20213;-79
2023/06/16 10:25:29;;;;;;;9.50;3.17;;;25.90;60.30;;;;;;5108029;28;20181;-79
2023/06/16 10:27:56;;;;;;;8.45;3.20;;;26.00;59.20;;;;;;5109512;28;20616;-78
2023/06/16 10:30:23;;;;;;;4.13;3.10;;;26.00;58.70;;;;;;5108418;28;20185;-79
2023/06/16 10:32:50;;;;;;;7.55;3.10;;;26.10;58.00;;;;;;5102672;28;20217;-81
2023/06/16 10:35:21;;;;;;;4.93;3.13;;;26.10;56.70;;;;;;5107012;28;20275;-80
2023/06/16 10:37:52;;;;;;;4.90;2.90;;;26.20;55.90;;;;;;5110561;28;20185;-79
2023/06/16 10:40:22;;;;;;;5.22;3.40;;;26.20;55.70;;;;;;5110201;28;20203;-79
2023/06/16 10:42:49;;;;;;;3.90;2.75;;;26.30;55.60;;;;;;5089013;28;20198;-80
2023/06/16 10:45:44;;;;;;;9.80;3.17;;;26.30;55.50;;;;;;5107968;28;20181;-79
2023/06/16 10:48:11;;;;;;;4.72;2.92;;;26.50;55.20;;;;;;5096968;28;20205;-79
2023/06/16 10:50:41;;;;;;;8.98;2.95;;;26.50;55.30;;;;;;5095297;28;20243;-79
2023/06/16 10:53:16;;;;;;;6.40;3.05;;;26.60;55.00;;;;;;5111037;28;20209;-79
2023/06/16 10:55:44;;;;;;;7.75;3.03;;;26.70;54.40;;;;;;5097673;28;20181;-80
2023/06/16 10:58:16;;;;;;;5.45;3.10;;;26.70;55.10;;;;;;5106377;28;20178;-80
2023/06/16 11:00:43;;;;;;;5.07;2.95;;;26.70;54.70;;;;;;5107026;27;20210;-80
2023/06/16 11:03:09;;;;;;;6.80;3.15;;;26.60;54.30;;;;;;5111746;28;20189;-79
2023/06/16 11:05:41;;;;;;;10.68;3.08;;;26.60;54.40;;;;;;5114493;28;20272;-79
2023/06/16 11:08:08;;;;;;;6.20;2.65;;;26.60;53.00;;;;;;5094951;28;20182;-81
2023/06/16 11:11:07;;;;;;;7.40;3.00;;;26.70;53.20;;;;;;5094315;28;20178;-80
2023/06/16 11:13:35;;;;;;;4.40;2.55;;;26.70;53.20;;;;;;5056825;28;20229;-80
2023/06/16 11:16:02;;;;;;;7.45;2.88;;;26.80;52.70;;;;;;5098220;28;20177;-81
2023/06/16 11:18:31;;;;;;;6.95;2.90;;;26.80;52.00;;;;;;5113169;28;20176;-80
2023/06/16 11:21:01;;;;;;;4.05;2.70;;;26.80;51.80;;;;;;5114491;28;20181;-80
2023/06/16 11:23:28;;;;;;;6.25;3.00;;;26.90;51.50;;;;;;5091083;28;20186;-80
2023/06/16 11:26:06;;;;;;;5.40;2.50;;;26.90;51.00;;;;;;5092581;28;20184;-80
2023/06/16 11:28:33;;;;;;;5.00;2.30;;;26.90;50.70;;;;;;5093683;28;20217;-80
2023/06/16 11:31:01;;;;;;;5.20;2.70;;;26.90;51.00;;;;;;5091732;28;20273;-81
2023/06/16 11:33:28;;;;;;;7.88;2.88;;;26.90;50.90;;;;;;5095674;28;20210;-82
2023/06/16 11:35:54;;;;;;;4.13;2.65;;;26.90;50.80;;;;;;5096532;28;20225;-81
2023/06/16 11:38:25;;;;;;;4.93;2.65;;;27.00;50.30;;;;;;5093603;28;20177;-82
2023/06/16 11:40:53;;;;;;;4.63;2.67;;;27.20;50.20;;;;;;5095913;28;20671;-81
2023/06/16 11:43:22;;;;;;;9.55;2.55;;;27.30;49.40;;;;;;5094564;28;20169;-81
2023/06/16 11:45:47;;;;;;;4.22;2.70;;;27.30;48.80;;;;;;5094398;28;20177;-81
2023/06/16 11:48:13;;;;;;;4.18;2.60;;;27.30;48.60;;;;;;5094367;28;20306;-81
2023/06/16 11:50:42;;;;;;;6.03;2.33;;;27.50;48.70;;;;;;5094256;27;20182;-82
2023/06/16 11:53:13;;;;;;;5.88;2.53;;;27.70;48.40;;;;;;5111013;28;20209;-81
2023/06/16 11:55:38;;;;;;;5.90;2.45;;;27.80;47.70;;;;;;5108689;27;20213;-82
2023/06/16 11:58:04;;;;;;;6.40;3.75;;;27.90;46.80;;;;;;5102649;28;20747;-81
2023/06/16 12:00:31;;;;;;;5.22;2.65;;;28.00;46.50;;;;;;5076493;28;20575;-81
2023/06/16 12:02:57;;;;;;;5.00;2.92;;;28.10;46.00;;;;;;5094376;28;20291;-81
2023/06/16 12:05:28;;;;;;;4.88;3.00;;;28.20;45.60;;;;;;5075664;28;20611;-81
2023/06/16 12:07:54;;;;;;;5.55;3.40;;;28.20;45.20;;;;;;5091861;28;20173;-81
2023/06/16 12:10:22;;;;;;;5.35;2.90;;;28.20;45.00;;;;;;5094239;28;20245;-82
2023/06/16 12:12:47;;;;;;;6.80;3.00;;;28.20;44.70;;;;;;5092076;28;20213;-81
2023/06/16 12:15:21;;;;;;;6.03;2.95;;;28.30;43.90;;;;;;5076343;28;20723;-82
2023/06/16 12:17:47;;;;;;;5.57;2.85;;;28.30;43.60;;;;;;5092234;28;20158;-81
2023/06/16 12:20:14;;;;;;;3.95;2.25;;;28.30;43.60;;;;;;5092434;28;20180;-81
2023/06/16 12:22:40;;;;;;;2.75;2.25;;;28.30;43.20;;;;;;5091557;28;20606;-82
2023/06/16 12:25:16;;;;;;;6.03;3.15;;;28.20;42.90;;;;;;5077664;28;20180;-81
2023/06/16 12:27:49;;;;;;;6.10;3.15;;;28.10;42.90;;;;;;5113119;28;20640;-81
2023/06/16 12:30:15;;;;;;;4.97;2.50;;;28.00;42.90;;;;;;5095649;28;20185;-81
2023/06/16 12:32:42;;;;;;;5.78;2.30;;;28.00;43.40;;;;;;5093260;28;20304;-81
2023/06/16 12:35:08;;;;;;;3.55;2.70;;;28.00;43.60;;;;;;5107846;28;20240;-81
2023/06/16 12:37:35;;;;;;;6.78;3.03;;;28.00;43.70;;;;;;5112754;28;20696;-81
2023/06/16 12:40:07;;;;;;;4.60;2.97;;;28.00;43.70;;;;;;5113186;28;20574;-81
2023/06/16 12:42:34;;;;;;;6.70;3.42;;;28.10;43.50;;;;;;5114201;28;20196;-80